sensor_id;sensor_type;location;lat;lon;timestamp;pressure;altitude;pressure_sealevel;temperature;humidity
37648;BME280;23490;53.656;10.076;2024-01-07T00:01:17;99451.06;;;-145.95;100.00
37648;BME280;23490;53.656;10.076;2024-01-07T00:03:42;99083.47;;;-145.95;100.00
37648;BME280;23490;53.656;10.076;2024-01-07T00:06:10;99170.19;;;-145.95;100.00
37648;BME280;23490;53.656;10.076;2024-01-07T00:08:35;99455.19;;;-145.95;100.00
37648;BME280;23490;53.656;10.076;2024-01-07T00:11:00;99475.84;;;-145.95;100.00
37648;BME280;23490;53.656;10.076;2024-01-07T00:13:26;99488.22;;;-145.95;100.00
37648;BME280;23490;53.656;10.076;2024-01-07T00:15:51;99477.91;;;-145.95;100.00
37648;BME280;23490;53.656;10.076;2024-01-07T00:18:19;99397.34;;;-145.95;100.00
37648;BME280;23490;53.656;10.076;2024-01-07T00:20:44;99151.59;;;-145.95;100.00
37648;BME280;23490;53.656;10.076;2024-01-07T00:23:09;99500.63;;;-145.95;100.00
37648;BME280;23490;53.656;10.076;2024-01-07T00:25:35;99360.19;;;-145.95;100.00
37648;BME280;23490;53.656;10.076;2024-01-07T00:28:00;98976.09;;;-145.95;100.00
37648;BME280;23490;53.656;10.076;2024-01-07T00:30:27;98633.31;;;-145.95;100.00
37648;BME280;23490;53.656;10.076;2024-01-07T00:32:52;99438.66;;;-145.95;100.00
37648;BME280;23490;53.656;10.076;2024-01-07T00:35:17;99188.78;;;-145.95;100.00
37648;BME280;23490;53.656;10.076;2024-01-07T00:37:43;99426.28;;;-145.95;100.00
37648;BME280;23490;53.656;10.076;2024-01-07T00:40:09;99265.19;;;-145.95;100.00
37648;BME280;23490;53.656;10.076;2024-01-07T00:42:35;99479.97;;;-145.95;100.00
37648;BME280;23490;53.656;10.076;2024-01-07T00:45:00;99349.84;;;-145.95;100.00
37648;BME280;23490;53.656;10.076;2024-01-07T00:47:25;99252.78;;;-145.95;100.00
37648;BME280;23490;53.656;10.076;2024-01-07T00:49:51;99145.41;;;-145.95;100.00
37648;BME280;23490;53.656;10.076;2024-01-07T00:52:16;99484.09;;;-145.95;100.00
37648;BME280;23490;53.656;10.076;2024-01-07T00:54:41;99391.16;;;-145.95;100.00
37648;BME280;23490;53.656;10.076;2024-01-07T00:57:07;99273.44;;;-145.95;100.00
37648;BME280;23490;53.656;10.076;2024-01-07T00:59:32;98839.78;;;-145.95;100.00
37648;BME280;23490;53.656;10.076;2024-01-07T01:01:57;99013.25;;;-145.95;100.00
37648;BME280;23490;53.656;10.076;2024-01-07T01:04:22;99347.78;;;-145.95;100.00
37648;BME280;23490;53.656;10.076;2024-01-07T01:06:48;99203.22;;;-145.95;100.00
37648;BME280;23490;53.656;10.076;2024-01-07T01:09:13;98744.81;;;-145.95;100.00
37648;BME280;23490;53.656;10.076;2024-01-07T01:11:38;98996.72;;;-145.95;100.00
37648;BME280;23490;53.656;10.076;2024-01-07T01:14:04;99194.97;;;-145.95;100.00
37648;BME280;23490;53.656;10.076;2024-01-07T01:16:29;99118.56;;;-145.95;100.00
37648;BME280;23490;53.656;10.076;2024-01-07T01:18:54;98542.47;;;-145.95;100.00
37648;BME280;23490;53.656;10.076;2024-01-07T01:21:20;99166.06;;;-145.95;100.00
37648;BME280;23490;53.656;10.076;2024-01-07T01:23:46;99025.63;;;-145.95;100.00
37648;BME280;23490;53.656;10.076;2024-01-07T01:26:11;99102.03;;;-145.95;100.00
37648;BME280;23490;53.656;10.076;2024-01-07T01:28:37;98893.47;;;-145.95;100.00
37648;BME280;23490;53.656;10.076;2024-01-07T01:31:02;98777.84;;;-145.95;100.00
37648;BME280;23490;53.656;10.076;2024-01-07T01:33:27;99296.16;;;-145.95;100.00
37648;BME280;23490;53.656;10.076;2024-01-07T01:35:53;99318.88;;;-145.95;100.00
37648;BME280;23490;53.656;10.076;2024-01-07T01:38:18;99331.28;;;-145.95;100.00
37648;BME280;23490;53.656;10.076;2024-01-07T01:40:43;99213.56;;;-145.95;100.00
37648;BME280;23490;53.656;10.076;2024-01-07T01:43:09;98980.22;;;-145.95;100.00
37648;BME280;23490;53.656;10.076;2024-01-07T01:45:34;99219.75;;;-145.95;100.00
37648;BME280;23490;53.656;10.076;2024-01-07T01:48:00;99050.41;;;-145.95;100.00
37648;BME280;23490;53.656;10.076;2024-01-07T01:50:26;99372.56;;;-145.95;100.00
37648;BME280;23490;53.656;10.076;2024-01-07T01:52:51;99277.56;;;-145.95;100.00
37648;BME280;23490;53.656;10.076;2024-01-07T01:55:17;99306.50;;;-145.95;100.00
37648;BME280;23490;53.656;10.076;2024-01-07T01:57:46;99172.25;;;-145.95;100.00
37648;BME280;23490;53.656;10.076;2024-01-07T02:00:12;99519.22;;;-145.95;100.00
37648;BME280;23490;53.656;10.076;2024-01-07T02:02:37;99372.56;;;-145.95;100.00
37648;BME280;23490;53.656;10.076;2024-01-07T02:05:03;99225.94;;;-145.95;100.00
37648;BME280;23490;53.656;10.076;2024-01-07T02:07:30;98885.22;;;-145.95;100.00
37648;BME280;23490;53.656;10.076;2024-01-07T02:09:56;99089.66;;;-145.95;100.00
37648;BME280;23490;53.656;10.076;2024-01-07T02:12:21;99054.56;;;-145.95;100.00
37648;BME280;23490;53.656;10.076;2024-01-07T02:14:47;99209.44;;;-145.95;100.00
37648;BME280;23490;53.656;10.076;2024-01-07T02:17:12;99442.78;;;-145.95;100.00
37648;BME280;23490;53.656;10.076;2024-01-07T02:19:37;99306.50;;;-145.95;100.00
37648;BME280;23490;53.656;10.076;2024-01-07T02:22:03;99453.13;;;-145.95;100.00
37648;BME280;23490;53.656;10.076;2024-01-07T02:24:29;99277.56;;;-145.95;100.00
37648;BME280;23490;53.656;10.076;2024-01-07T02:26:56;99409.75;;;-145.95;100.00
37648;BME280;23490;53.656;10.076;2024-01-07T02:29:21;99358.13;;;-145.95;100.00
37648;BME280;23490;53.656;10.076;2024-01-07T02:31:46;99236.28;;;-145.95;100.00
37648;BME280;23490;53.656;10.076;2024-01-07T02:34:12;99277.56;;;-145.95;100.00
37648;BME280;23490;53.656;10.076;2024-01-07T02:36:37;99240.41;;;-145.95;100.00
37648;BME280;23490;53.656;10.076;2024-01-07T02:39:02;99104.09;;;-145.95;100.00
37648;BME280;23490;53.656;10.076;2024-01-07T02:41:28;99546.06;;;-145.95;100.00
37648;BME280;23490;53.656;10.076;2024-01-07T02:43:53;99411.81;;;-145.95;100.00
37648;BME280;23490;53.656;10.076;2024-01-07T02:46:19;99391.16;;;-145.95;100.00
37648;BME280;23490;53.656;10.076;2024-01-07T02:48:45;99529.53;;;-145.95;100.00
37648;BME280;23490;53.656;10.076;2024-01-07T02:51:10;99591.50;;;-145.95;100.00
37648;BME280;23490;53.656;10.076;2024-01-07T02:53:35;99574.97;;;-145.95;100.00
37648;BME280;23490;53.656;10.076;2024-01-07T02:56:01;99529.53;;;-145.95;100.00
37648;BME280;23490;53.656;10.076;2024-01-07T02:58:26;99587.34;;;-145.95;100.00
37648;BME280;23490;53.656;10.076;2024-01-07T03:00:51;99467.56;;;-145.95;100.00
37648;BME280;23490;53.656;10.076;2024-01-07T03:03:17;99544.00;;;-145.95;100.00
37648;BME280;23490;53.656;10.076;2024-01-07T03:05:42;99434.53;;;-145.95;100.00
37648;BME280;23490;53.656;10.076;2024-01-07T03:08:07;99312.69;;;-145.95;100.00
37648;BME280;23490;53.656;10.076;2024-01-07T03:10:33;98786.09;;;-145.95;100.00
37648;BME280;23490;53.656;10.076;2024-01-07T03:13:02;98598.22;;;-145.95;100.00
37648;BME280;23490;53.656;10.076;2024-01-07T03:15:28;99488.22;;;-145.95;100.00
37648;BME280;23490;53.656;10.076;2024-01-07T03:17:53;99384.97;;;-145.95;100.00
37648;BME280;23490;53.656;10.076;2024-01-07T03:20:19;99415.94;;;-145.95;100.00
37648;BME280;23490;53.656;10.076;2024-01-07T03:22:44;99577.03;;;-145.95;100.00
37648;BME280;23490;53.656;10.076;2024-01-07T03:25:09;99351.91;;;-145.95;100.00
37648;BME280;23490;53.656;10.076;2024-01-07T03:27:35;99498.56;;;-145.95;100.00
37648;BME280;23490;53.656;10.076;2024-01-07T03:30:00;99636.94;;;-145.95;100.00
37648;BME280;23490;53.656;10.076;2024-01-07T03:32:25;99597.69;;;-145.95;100.00
37648;BME280;23490;53.656;10.076;2024-01-07T03:34:51;99639.00;;;-145.95;100.00
37648;BME280;23490;53.656;10.076;2024-01-07T03:37:16;99665.84;;;-145.95;100.00
37648;BME280;23490;53.656;10.076;2024-01-07T03:39:43;99721.59;;;-145.95;100.00
37648;BME280;23490;53.656;10.076;2024-01-07T03:42:08;99715.41;;;-145.95;100.00
37648;BME280;23490;53.656;10.076;2024-01-07T03:44:37;99684.44;;;-145.95;99.66
37648;BME280;23490;53.656;10.076;2024-01-07T03:47:04;99715.41;;;-145.95;100.00
37648;BME280;23490;53.656;10.076;2024-01-07T03:49:29;99603.88;;;-145.95;100.00
37648;BME280;23490;53.656;10.076;2024-01-07T03:51:54;99769.13;;;-145.95;99.03
37648;BME280;23490;53.656;10.076;2024-01-07T03:54:20;99717.47;;;-145.95;100.00
37648;BME280;23490;53.656;10.076;2024-01-07T03:56:45;99717.47;;;-145.95;100.00
37648;BME280;23490;53.656;10.076;2024-01-07T03:59:11;99810.41;;;-145.95;98.45
37648;BME280;23490;53.656;10.076;2024-01-07T04:01:36;99785.63;;;-145.95;98.55
37648;BME280;23490;53.656;10.076;2024-01-07T04:04:01;99853.78;;;-145.95;97.17
37648;BME280;23490;53.656;10.076;2024-01-07T04:06:27;99748.44;;;-145.95;99.63
37648;BME280;23490;53.656;10.076;2024-01-07T04:08:52;99756.72;;;-145.95;100.00
37648;BME280;23490;53.656;10.076;2024-01-07T04:11:17;99789.75;;;-145.95;98.88
37648;BME280;23490;53.656;10.076;2024-01-07T04:13:42;99820.75;;;-145.95;98.58
37648;BME280;23490;53.656;10.076;2024-01-07T04:16:20;99835.19;;;-145.95;98.46
37648;BME280;23490;53.656;10.076;2024-01-07T04:18:46;99752.59;;;-145.95;100.00
37648;BME280;23490;53.656;10.076;2024-01-07T04:21:12;99717.47;;;-145.95;100.00
37648;BME280;23490;53.656;10.076;2024-01-07T04:23:41;99777.38;;;-145.95;98.96
37648;BME280;23490;53.656;10.076;2024-01-07T04:26:09;99729.88;;;-145.95;100.00
37648;BME280;23490;53.656;10.076;2024-01-07T04:28:34;99380.84;;;-145.95;100.00
37648;BME280;23490;53.656;10.076;2024-01-07T04:31:00;99843.47;;;-145.95;97.88
37648;BME280;23490;53.656;10.076;2024-01-07T04:33:25;99752.59;;;-145.95;100.00
37648;BME280;23490;53.656;10.076;2024-01-07T04:35:50;99837.28;;;-145.95;98.19
37648;BME280;23490;53.656;10.076;2024-01-07T04:38:16;99802.16;;;-145.95;98.66
37648;BME280;23490;53.656;10.076;2024-01-07T04:40:41;99872.38;;;-145.95;97.19
37648;BME280;23490;53.656;10.076;2024-01-07T04:43:07;99886.84;;;-145.95;96.34
37648;BME280;23490;53.656;10.076;2024-01-07T04:45:32;99806.28;;;-145.95;99.05
37648;BME280;23490;53.656;10.076;2024-01-07T04:47:57;99814.56;;;-145.95;98.66
37648;BME280;23490;53.656;10.076;2024-01-07T04:50:23;99851.72;;;-145.95;97.50
37648;BME280;23490;53.656;10.076;2024-01-07T04:52:48;99851.72;;;-145.95;97.53
37648;BME280;23490;53.656;10.076;2024-01-07T04:55:13;99884.78;;;-145.95;96.81
37648;BME280;23490;53.656;10.076;2024-01-07T04:57:39;99851.72;;;-145.95;96.83
37648;BME280;23490;53.656;10.076;2024-01-07T05:00:04;99886.84;;;-145.95;96.72
37648;BME280;23490;53.656;10.076;2024-01-07T05:02:30;99839.34;;;-145.95;96.55
37648;BME280;23490;53.656;10.076;2024-01-07T05:04:55;99808.34;;;-145.95;99.75
37648;BME280;23490;53.656;10.076;2024-01-07T05:07:21;99529.53;;;-145.95;100.00
37648;BME280;23490;53.656;10.076;2024-01-07T05:09:46;99672.03;;;-145.95;100.00
37648;BME280;23490;53.656;10.076;2024-01-07T05:12:11;99711.28;;;-145.95;100.00
37648;BME280;23490;53.656;10.076;2024-01-07T05:14:37;99678.22;;;-145.95;100.00
37648;BME280;23490;53.656;10.076;2024-01-07T05:17:03;99488.22;;;-145.95;100.00
37648;BME280;23490;53.656;10.076;2024-01-07T05:19:28;99508.88;;;-145.95;100.00
37648;BME280;23490;53.656;10.076;2024-01-07T05:21:54;99418.00;;;-145.95;100.00
37648;BME280;23490;53.656;10.076;2024-01-07T05:24:19;99339.53;;;-145.95;100.00
37648;BME280;23490;53.656;10.076;2024-01-07T05:26:45;99040.09;;;-145.95;100.00
37648;BME280;23490;53.656;10.076;2024-01-07T05:29:10;98003.63;;;-145.95;100.00
37648;BME280;23490;53.656;10.076;2024-01-07T05:31:37;98546.59;;;-145.95;100.00
37648;BME280;23490;53.656;10.076;2024-01-07T05:34:03;98412.41;;;-145.95;100.00
37648;BME280;23490;53.656;10.076;2024-01-07T05:36:28;97910.72;;;-145.95;100.00
37648;BME280;23490;53.656;10.076;2024-01-07T05:38:53;97960.28;;;-145.95;100.00
37648;BME280;23490;53.656;10.076;2024-01-07T05:41:19;97985.03;;;-145.95;100.00
37648;BME280;23490;53.656;10.076;2024-01-07T05:43:44;97931.38;;;-145.95;100.00
37648;BME280;23490;53.656;10.076;2024-01-07T05:46:10;98823.28;;;-145.95;100.00
37648;BME280;23490;53.656;10.076;2024-01-07T05:51:09;97547.44;;;-145.95;100.00
37648;BME280;23490;53.656;10.076;2024-01-07T05:53:35;97885.97;;;-145.95;100.00
37648;BME280;23490;53.656;10.076;2024-01-07T05:56:00;98356.66;;;-145.95;100.00
37648;BME280;23490;53.656;10.076;2024-01-07T05:58:25;97669.22;;;-145.95;100.00
37648;BME280;23490;53.656;10.076;2024-01-07T06:00:51;97444.22;;;-145.95;100.00
37648;BME280;23490;53.656;10.076;2024-01-07T06:03:16;97890.09;;;-145.95;100.00
37648;BME280;23490;53.656;10.076;2024-01-07T06:05:41;95793.38;;;-145.95;100.00
37648;BME280;23490;53.656;10.076;2024-01-07T06:08:07;96787.94;;;-145.95;100.00
37648;BME280;23490;53.656;10.076;2024-01-07T06:10:32;95624.22;;;-145.95;100.00
37648;BME280;23490;53.656;10.076;2024-01-07T06:12:57;96352.53;;;-145.95;100.00
37648;BME280;23490;53.656;10.076;2024-01-07T06:15:23;96061.59;;;-145.95;100.00
37648;BME280;23490;53.656;10.076;2024-01-07T06:17:48;96185.41;;;-145.95;100.00
37648;BME280;23490;53.656;10.076;2024-01-07T06:20:14;93504.16;;;-145.95;100.00
37648;BME280;23490;53.656;10.076;2024-01-07T06:22:39;95085.84;;;-145.95;100.00
37648;BME280;23490;53.656;10.076;2024-01-07T06:25:05;95995.56;;;-145.95;100.00
37648;BME280;23490;53.656;10.076;2024-01-07T06:27:30;94960.00;;;-145.95;100.00
37648;BME280;23490;53.656;10.076;2024-01-07T06:29:55;94415.53;;;-145.95;100.00
37648;BME280;23490;53.656;10.076;2024-01-07T06:32:21;94650.66;;;-145.95;100.00
37648;BME280;23490;53.656;10.076;2024-01-07T06:34:46;93417.56;;;-145.95;100.00
37648;BME280;23490;53.656;10.076;2024-01-07T06:37:12;93516.53;;;-145.95;100.00
37648;BME280;23490;53.656;10.076;2024-01-07T06:39:37;93425.81;;;-145.95;100.00
37648;BME280;23490;53.656;10.076;2024-01-07T06:42:03;89525.31;;;-145.95;100.00
37648;BME280;23490;53.656;10.076;2024-01-07T06:44:29;86962.41;;;-145.95;100.00
37648;BME280;23490;53.656;10.076;2024-01-07T06:46:54;82863.63;;;-145.95;100.00
37648;BME280;23490;53.656;10.076;2024-01-07T06:49:19;77300.19;;;-145.95;100.00
37648;BME280;23490;53.656;10.076;2024-01-07T06:51:45;70101.00;;;-145.95;100.00
37648;BME280;23490;53.656;10.076;2024-01-07T06:54:10;65386.31;;;-145.95;100.00
37648;BME280;23490;53.656;10.076;2024-01-07T06:56:36;57281.78;;;-145.95;100.00
37648;BME280;23490;53.656;10.076;2024-01-07T06:59:02;54149.75;;;-145.95;100.00
37648;BME280;23490;53.656;10.076;2024-01-07T07:01:27;48675.63;;;-145.95;100.00
37648;BME280;23490;53.656;10.076;2024-01-07T07:03:52;48675.63;;;-145.95;100.00
37648;BME280;23490;53.656;10.076;2024-01-07T07:06:18;47373.56;;;-145.95;100.00
37648;BME280;23490;53.656;10.076;2024-01-07T07:08:44;45031.13;;;-145.95;100.00
37648;BME280;23490;53.656;10.076;2024-01-07T07:11:09;45031.13;;;-145.95;100.00
37648;BME280;23490;53.656;10.076;2024-01-07T07:13:34;43990.56;;;-145.95;100.00
37648;BME280;23490;53.656;10.076;2024-01-07T07:16:00;42950.34;;;-145.95;100.00
37648;BME280;23490;53.656;10.076;2024-01-07T07:18:25;40870.81;;;-145.95;100.00
37648;BME280;23490;53.656;10.076;2024-01-07T07:20:51;41910.41;;;-145.95;100.00
37648;BME280;23490;53.656;10.076;2024-01-07T07:23:17;42430.34;;;-145.95;100.00
37648;BME280;23490;53.656;10.076;2024-01-07T07:25:42;42950.34;;;-145.95;100.00
37648;BME280;23490;53.656;10.076;2024-01-07T07:28:07;40610.97;;;-145.95;100.00
37648;BME280;23490;53.656;10.076;2024-01-07T07:30:32;40091.34;;;-145.95;100.00
37648;BME280;23490;53.656;10.076;2024-01-07T07:32:58;40091.34;;;-145.95;100.00
37648;BME280;23490;53.656;10.076;2024-01-07T07:35:23;40351.16;;;-145.95;100.00
37648;BME280;23490;53.656;10.076;2024-01-07T07:37:49;40610.97;;;-145.95;100.00
37648;BME280;23490;53.656;10.076;2024-01-07T07:40:15;41390.59;;;-145.95;100.00
37648;BME280;23490;53.656;10.076;2024-01-07T07:42:40;40091.34;;;-145.95;100.00
37648;BME280;23490;53.656;10.076;2024-01-07T07:45:06;42430.34;;;-145.95;100.00
37648;BME280;23490;53.656;10.076;2024-01-07T07:47:31;44250.69;;;-145.95;100.00
37648;BME280;23490;53.656;10.076;2024-01-07T07:49:56;45551.53;;;-145.95;100.00
37648;BME280;23490;53.656;10.076;2024-01-07T07:52:22;47894.34;;;-145.95;100.00
37648;BME280;23490;53.656;10.076;2024-01-07T07:54:51;49457.09;;;-145.95;100.00
37648;BME280;23490;53.656;10.076;2024-01-07T07:57:16;46852.88;;;-145.95;100.00
37648;BME280;23490;53.656;10.076;2024-01-07T07:59:42;51281.25;;;-145.95;100.00
37648;BME280;23490;53.656;10.076;2024-01-07T08:02:07;49978.19;;;-145.95;100.00
37648;BME280;23490;53.656;10.076;2024-01-07T08:04:33;48675.63;;;-145.95;100.00
37648;BME280;23490;53.656;10.076;2024-01-07T08:06:58;48936.09;;;-145.95;100.00
37648;BME280;23490;53.656;10.076;2024-01-07T08:09:24;51802.59;;;-145.95;100.00
37648;BME280;23490;53.656;10.076;2024-01-07T08:11:50;51802.59;;;-145.95;100.00
37648;BME280;23490;53.656;10.076;2024-01-07T08:14:15;53628.00;;;-145.95;100.00
37648;BME280;23490;53.656;10.076;2024-01-07T08:16:40;54410.63;;;-145.95;100.00
37648;BME280;23490;53.656;10.076;2024-01-07T08:19:07;52063.31;;;-145.95;100.00
37648;BME280;23490;53.656;10.076;2024-01-07T08:21:32;52324.06;;;-145.95;100.00
37648;BME280;23490;53.656;10.076;2024-01-07T08:23:58;57281.78;;;-145.95;100.00
37648;BME280;23490;53.656;10.076;2024-01-07T08:26:24;63292.97;;;-145.95;100.00
37648;BME280;23490;53.656;10.076;2024-01-07T08:28:49;64862.84;;;-145.95;100.00
37648;BME280;23490;53.656;10.076;2024-01-07T08:31:14;65386.31;;;-145.95;100.00
37648;BME280;23490;53.656;10.076;2024-01-07T08:33:40;67480.91;;;-145.95;100.00
37648;BME280;23490;53.656;10.076;2024-01-07T08:36:05;70363.13;;;-145.95;100.00
37648;BME280;23490;53.656;10.076;2024-01-07T08:38:30;73247.75;;;-145.95;100.00
37648;BME280;23490;53.656;10.076;2024-01-07T08:40:56;76861.06;;;-145.95;100.00
37648;BME280;23490;53.656;10.076;2024-01-07T08:43:21;74297.31;;;-145.95;100.00
37648;BME280;23490;53.656;10.076;2024-01-07T08:45:47;75486.66;;;-145.95;100.00
37648;BME280;23490;53.656;10.076;2024-01-07T08:48:12;79182.41;;;-145.95;100.00
37648;BME280;23490;53.656;10.076;2024-01-07T08:50:38;83433.03;;;-145.95;100.00
37648;BME280;23490;53.656;10.076;2024-01-07T08:53:04;80987.59;;;-145.95;100.00
37648;BME280;23490;53.656;10.076;2024-01-07T08:55:30;84045.66;;;-145.95;100.00
37648;BME280;23490;53.656;10.076;2024-01-07T08:57:55;83003.41;;;-145.95;100.00
37648;BME280;23490;53.656;10.076;2024-01-07T09:00:20;86266.94;;;-145.95;100.00
37648;BME280;23490;53.656;10.076;2024-01-07T09:02:51;84609.06;;;-145.95;100.00
37648;BME280;23490;53.656;10.076;2024-01-07T09:05:16;88646.09;;;-145.95;100.00
37648;BME280;23490;53.656;10.076;2024-01-07T09:07:41;84929.88;;;-145.95;100.00
37648;BME280;23490;53.656;10.076;2024-01-07T09:10:07;88539.03;;;-145.95;100.00
37648;BME280;23490;53.656;10.076;2024-01-07T09:12:36;86620.81;;;-145.95;100.00
37648;BME280;23490;53.656;10.076;2024-01-07T09:15:02;91793.38;;;-145.95;100.00
37648;BME280;23490;53.656;10.076;2024-01-07T09:17:27;91706.81;;;-145.95;100.00
37648;BME280;23490;53.656;10.076;2024-01-07T09:19:52;89914.53;;;-145.95;100.00
37648;BME280;23490;53.656;10.076;2024-01-07T09:22:18;92240.56;;;-145.95;100.00
37648;BME280;23490;53.656;10.076;2024-01-07T09:24:43;94403.16;;;-145.95;100.00
37648;BME280;23490;53.656;10.076;2024-01-07T09:27:09;94572.28;;;-145.95;100.00
37648;BME280;23490;53.656;10.076;2024-01-07T09:29:34;94803.25;;;-145.95;100.00
37648;BME280;23490;53.656;10.076;2024-01-07T09:31:59;94423.78;;;-145.95;100.00
37648;BME280;23490;53.656;10.076;2024-01-07T09:34:24;96173.00;;;-145.95;100.00
37648;BME280;23490;53.656;10.076;2024-01-07T09:36:50;95985.25;;;-145.95;100.00
37648;BME280;23490;53.656;10.076;2024-01-07T09:39:15;96321.56;;;-145.95;100.00
37648;BME280;23490;53.656;10.076;2024-01-07T09:41:41;94875.44;;;-145.95;100.00
37648;BME280;23490;53.656;10.076;2024-01-07T09:44:06;97006.69;;;-145.95;100.00
37648;BME280;23490;53.656;10.076;2024-01-07T09:46:34;97452.47;;;-145.95;100.00
37648;BME280;23490;53.656;10.076;2024-01-07T09:49:02;97198.63;;;-145.95;100.00
37648;BME280;23490;53.656;10.076;2024-01-07T09:51:29;96379.34;;;-145.95;100.00
37648;BME280;23490;53.656;10.076;2024-01-07T09:53:59;97669.22;;;-145.95;100.00
37648;BME280;23490;53.656;10.076;2024-01-07T09:56:29;97764.16;;;-145.95;100.00
37648;BME280;23490;53.656;10.076;2024-01-07T09:58:58;97968.53;;;-145.95;100.00
37648;BME280;23490;53.656;10.076;2024-01-07T10:01:24;98325.69;;;-145.95;100.00
37648;BME280;23490;53.656;10.076;2024-01-07T10:03:49;98488.78;;;-145.95;100.00
37648;BME280;23490;53.656;10.076;2024-01-07T10:06:18;98951.31;;;-145.95;100.00
37648;BME280;23490;53.656;10.076;2024-01-07T10:08:44;99141.28;;;-145.95;100.00
37648;BME280;23490;53.656;10.076;2024-01-07T10:11:10;99149.53;;;-145.95;100.00
37648;BME280;23490;53.656;10.076;2024-01-07T10:13:38;99029.78;;;-145.95;100.00
37648;BME280;23490;53.656;10.076;2024-01-07T10:16:04;99042.16;;;-145.95;100.00
37648;BME280;23490;53.656;10.076;2024-01-07T10:18:30;99283.78;;;-145.95;100.00
37648;BME280;23490;53.656;10.076;2024-01-07T10:21:01;99232.16;;;-145.95;100.00
37648;BME280;23490;53.656;10.076;2024-01-07T10:23:28;99058.69;;;-145.95;100.00
37648;BME280;23490;53.656;10.076;2024-01-07T10:25:54;99161.94;;;-145.95;100.00
37648;BME280;23490;53.656;10.076;2024-01-07T10:28:22;98932.72;;;-145.95;100.00
37648;BME280;23490;53.656;10.076;2024-01-07T10:30:50;99145.41;;;-145.95;100.00
37648;BME280;23490;53.656;10.076;2024-01-07T10:33:19;98932.72;;;-145.95;100.00
37648;BME280;23490;53.656;10.076;2024-01-07T10:36:01;99099.97;;;-145.95;100.00
37648;BME280;23490;53.656;10.076;2024-01-07T10:38:29;99199.09;;;-145.95;100.00
37648;BME280;23490;53.656;10.076;2024-01-07T10:40:55;98971.94;;;-145.95;100.00
37648;BME280;23490;53.656;10.076;2024-01-07T10:43:26;99104.09;;;-145.95;100.00
37648;BME280;23490;53.656;10.076;2024-01-07T10:45:54;99219.75;;;-145.95;100.00
37648;BME280;23490;53.656;10.076;2024-01-07T10:48:21;99244.53;;;-145.95;100.00
37648;BME280;23490;53.656;10.076;2024-01-07T10:50:50;99029.78;;;-145.95;100.00
37648;BME280;23490;53.656;10.076;2024-01-07T10:53:23;99254.84;;;-145.95;100.00
37648;BME280;23490;53.656;10.076;2024-01-07T10:55:54;99079.34;;;-145.95;100.00
37648;BME280;23490;53.656;10.076;2024-01-07T10:58:25;98693.19;;;-145.95;100.00
37648;BME280;23490;53.656;10.076;2024-01-07T11:00:51;99093.78;;;-145.95;100.00
37648;BME280;23490;53.656;10.076;2024-01-07T11:03:28;99025.63;;;-145.95;100.00
37648;BME280;23490;53.656;10.076;2024-01-07T11:06:15;98910.00;;;-145.95;100.00
37648;BME280;23490;53.656;10.076;2024-01-07T11:08:52;99130.94;;;-145.95;100.00
37648;BME280;23490;53.656;10.076;2024-01-07T11:11:25;99033.91;;;-145.95;100.00
37648;BME280;23490;53.656;10.076;2024-01-07T11:13:51;98967.81;;;-145.95;100.00
37648;BME280;23490;53.656;10.076;2024-01-07T11:19:05;99318.88;;;-145.95;100.00
37648;BME280;23490;53.656;10.076;2024-01-07T11:21:30;99364.31;;;-145.95;100.00
37648;BME280;23490;53.656;10.076;2024-01-07T11:23:55;99486.16;;;-145.95;100.00
37648;BME280;23490;53.656;10.076;2024-01-07T11:26:21;99546.06;;;-145.95;98.80
37648;BME280;23490;53.656;10.076;2024-01-07T11:28:47;99624.53;;;-145.95;97.75
37648;BME280;23490;53.656;10.076;2024-01-07T11:31:15;99754.66;;;-145.95;96.63
37648;BME280;23490;53.656;10.076;2024-01-07T11:33:45;99669.97;;;-145.95;97.90
37648;BME280;23490;53.656;10.076;2024-01-07T11:36:12;99818.69;;;-145.95;94.99
37648;BME280;23490;53.656;10.076;2024-01-07T11:38:42;99893.03;;;-145.95;93.45
37648;BME280;23490;53.656;10.076;2024-01-07T11:41:09;99868.25;;;-145.95;94.83
37648;BME280;23490;53.656;10.076;2024-01-07T11:43:36;99888.91;;;-145.95;95.54
37648;BME280;23490;53.656;10.076;2024-01-07T11:46:01;99895.09;;;-145.95;96.79
37648;BME280;23490;53.656;10.076;2024-01-07T11:48:27;99901.31;;;-145.95;95.59
37648;BME280;23490;53.656;10.076;2024-01-07T11:50:52;99926.09;;;-145.95;95.35
37648;BME280;23490;53.656;10.076;2024-01-07T11:53:18;99835.19;;;-145.95;96.63
37648;BME280;23490;53.656;10.076;2024-01-07T11:55:44;99855.84;;;-145.95;95.38
37648;BME280;23490;53.656;10.076;2024-01-07T11:58:10;99847.59;;;-145.95;95.18
37648;BME280;23490;53.656;10.076;2024-01-07T12:00:35;99860.00;;;-145.95;95.65
37648;BME280;23490;53.656;10.076;2024-01-07T12:03:02;99917.81;;;-145.95;93.85
37648;BME280;23490;53.656;10.076;2024-01-07T12:05:28;99893.03;;;-145.95;94.86
37648;BME280;23490;53.656;10.076;2024-01-07T12:07:53;99942.59;;;-145.95;95.00
37648;BME280;23490;53.656;10.076;2024-01-07T12:10:19;99948.81;;;-145.95;94.80
37648;BME280;23490;53.656;10.076;2024-01-07T12:12:44;99897.16;;;-145.95;95.81
37648;BME280;23490;53.656;10.076;2024-01-07T12:15:11;99930.22;;;-145.95;94.69
37648;BME280;23490;53.656;10.076;2024-01-07T12:17:38;99926.09;;;-145.95;96.94
37648;BME280;23490;53.656;10.076;2024-01-07T12:20:04;99944.69;;;-145.95;96.46
37648;BME280;23490;53.656;10.076;2024-01-07T12:22:30;99893.03;;;-145.95;97.69